Time;durP1;ratioP1;P1;durP2;ratioP2;P2;SDS_P1;SDS_P2;PMS_P1;PMS_P2;Temp;Humidity;BMP_temperature;BMP_pressure;BME280_temperature;BME280_humidity;BME280_pressure;Samples;Min_cycle;Max_cycle;Signal;HPM_P1;HPM_P2
2022/03/14 07:06:35;;;;;;;2.53;2.30;;;;;;;19.63;31.40;101159.47;12481760;22;43795;-74
2022/03/14 07:11:27;;;;;;;2.58;2.25;;;;;;;19.63;31.41;101167.72;12545848;22;67732;-75
2022/03/14 07:16:20;;;;;;;4.53;1.88;;;;;;;19.61;31.46;101170.75;12547269;22;65253;-74
2022/03/14 07:21:12;;;;;;;2.30;2.05;;;;;;;19.62;31.55;101177.91;12544788;22;65632;-75
2022/03/14 07:26:05;;;;;;;2.45;2.20;;;;;;;19.65;31.60;101184.75;12547179;22;66132;-75
2022/03/14 07:30:57;;;;;;;2.22;2.03;;;;;;;19.59;31.87;101210.66;12548169;22;66917;-75
2022/03/14 07:35:49;;;;;;;4.40;2.30;;;;;;;19.63;31.92;101214.50;12548522;22;67329;-75
2022/03/14 07:40:42;;;;;;;7.38;2.28;;;;;;;19.63;31.91;101214.50;12548009;22;66992;-75
2022/03/14 07:45:35;;;;;;;3.80;2.00;;;;;;;19.61;31.94;101223.03;12549112;22;66381;-74
2022/03/14 07:50:28;;;;;;;4.10;2.05;;;;;;;19.59;32.27;101224.41;12549301;22;65644;-75
2022/03/14 07:55:20;;;;;;;2.80;2.20;;;;;;;19.59;32.27;101236.25;12546104;22;65640;-75
2022/03/14 08:00:14;;;;;;;2.30;2.00;;;;;;;19.62;32.63;101240.34;12548695;22;68414;-75
2022/03/14 08:05:09;;;;;;;3.53;1.70;;;;;;;19.59;32.97;101236.25;12546901;22;66334;-75
2022/03/14 08:10:01;;;;;;;3.63;1.65;;;;;;;19.59;33.41;101257.41;12545841;22;65178;-75
2022/03/14 08:14:53;;;;;;;2.35;1.80;;;;;;;19.59;33.31;101265.69;12548233;22;66268;-75
2022/03/14 08:19:45;;;;;;;4.07;1.80;;;;;;;19.60;32.96;101268.16;12546717;22;65700;-75
2022/03/14 08:24:38;;;;;;;4.00;2.10;;;;;;;19.59;33.14;101271.19;12549207;22;66365;-71
2022/03/14 08:29:30;;;;;;;3.05;1.83;;;;;;;19.58;33.35;101284.09;12550503;22;66459;-71
2022/03/14 08:34:25;;;;;;;2.97;1.75;;;;;;;19.59;33.14;101299.50;12544547;22;66433;-71
2022/03/14 08:39:17;;;;;;;3.83;1.50;;;;;;;19.60;33.73;101305.84;12546395;22;66449;-72
2022/03/14 08:44:12;;;;;;;6.70;1.80;;;;;;;18.95;36.10;101321.53;12548950;22;66170;-70
2022/03/14 08:49:04;;;;;;;2.72;1.70;;;;;;;17.45;41.01;101327.59;12547750;22;65886;-70
2022/03/14 08:53:56;;;;;;;3.20;1.63;;;;;;;16.97;42.87;101336.97;12547195;22;65501;-70
2022/03/14 08:58:48;;;;;;;3.83;2.00;;;;;;;17.03;42.39;101336.75;12548625;22;66665;-70
2022/03/14 09:03:42;;;;;;;5.68;1.90;;;;;;;17.07;42.25;101342.53;12548378;22;66354;-70
2022/03/14 09:08:34;;;;;;;2.78;1.55;;;;;;;16.70;43.21;101342.59;12546287;22;66351;-70
2022/03/14 09:13:26;;;;;;;3.97;1.97;;;;;;;16.71;43.88;101347.00;12543936;22;65581;-70
2022/03/14 09:18:18;;;;;;;4.10;1.67;;;;;;;16.72;43.49;101356.03;12547893;22;65248;-70
2022/03/14 09:23:12;;;;;;;4.93;1.50;;;;;;;16.79;43.86;101364.84;12548030;22;43221;-70
2022/03/14 09:28:04;;;;;;;5.37;1.30;;;;;;;18.21;39.63;101364.22;12545229;22;66436;-72
2022/03/14 09:32:57;;;;;;;5.37;1.20;;;;;;;18.54;38.64;101367.47;12547948;22;66299;-72
2022/03/14 09:37:49;;;;;;;2.03;1.00;;;;;;;18.73;37.97;101365.84;12545576;22;67034;-72
2022/03/14 09:42:45;;;;;;;3.78;1.38;;;;;;;18.85;37.58;101365.53;12546728;22;66373;-72
2022/03/14 09:47:37;;;;;;;2.53;1.20;;;;;;;18.94;37.28;101375.69;12543661;22;66430;-75
2022/03/14 09:52:29;;;;;;;2.75;1.40;;;;;;;18.96;37.12;101389.16;12545410;22;65750;-75
2022/03/14 09:57:21;;;;;;;3.03;1.30;;;;;;;19.00;36.82;101395.72;12543536;22;66425;-76
2022/03/14 10:02:15;;;;;;;1.73;0.90;;;;;;;19.09;36.69;101396.81;12545721;22;65312;-76
2022/03/14 10:07:07;;;;;;;1.23;0.88;;;;;;;19.13;36.38;101395.13;12545755;22;66744;-76
2022/03/14 10:11:59;;;;;;;2.28;1.10;;;;;;;19.15;36.32;101400.34;12547712;22;66701;-76
2022/03/14 10:16:56;;;;;;;2.00;0.95;;;;;;;19.23;36.09;101408.03;12547192;22;65572;-76
2022/03/14 10:21:51;;;;;;;1.67;1.00;;;;;;;19.14;36.23;101423.44;12547351;22;65538;-76
2022/03/14 10:26:44;;;;;;;2.38;1.20;;;;;;;19.15;36.12;101425.09;12545705;22;66559;-76
2022/03/14 10:31:37;;;;;;;1.88;1.23;;;;;;;19.17;36.00;101433.88;12545820;22;66433;-74
2022/03/14 10:36:42;;;;;;;1.20;0.80;;;;;;;19.23;36.00;101439.09;12545738;22;66540;-75
2022/03/14 10:41:35;;;;;;;1.98;0.85;;;;;;;19.14;36.07;101428.94;12543718;22;66335;-76
2022/03/14 10:46:27;;;;;;;2.63;0.90;;;;;;;19.23;35.95;101436.34;12545334;22;65239;-76
2022/03/14 10:51:19;;;;;;;1.50;0.93;;;;;;;19.28;35.87;101430.00;12545231;22;66375;-76
2022/03/14 10:56:11;;;;;;;2.28;1.00;;;;;;;19.31;35.53;101432.19;12544546;22;65777;-76
2022/03/14 11:01:05;;;;;;;1.27;0.85;;;;;;;19.29;35.63;101445.38;12544921;22;65980;-76
2022/03/14 11:06:02;;;;;;;1.77;0.95;;;;;;;19.31;35.75;101449.50;12546034;22;66374;-76
2022/03/14 11:10:54;;;;;;;1.27;0.88;;;;;;;19.27;35.73;101445.66;12548615;22;66513;-76
2022/03/14 11:15:46;;;;;;;1.35;0.85;;;;;;;19.38;35.60;101444.53;12547363;22;66322;-76
2022/03/14 11:20:40;;;;;;;1.55;0.90;;;;;;;19.52;35.33;101450.28;12546625;22;66923;-76
2022/03/14 11:25:32;;;;;;;1.13;0.80;;;;;;;19.76;34.84;101451.28;12547003;22;65634;-76
2022/03/14 11:30:24;;;;;;;1.52;0.90;;;;;;;19.76;34.77;101461.47;12545928;22;65540;-76
2022/03/14 11:35:16;;;;;;;1.92;0.90;;;;;;;19.76;34.80;101464.22;12547401;22;65559;-76
2022/03/14 11:40:11;;;;;;;2.28;0.95;;;;;;;19.52;35.19;101460.47;12545621;22;65381;-78
2022/03/14 11:45:05;;;;;;;2.95;1.00;;;;;;;19.45;35.36;101471.75;12547855;22;66420;-76
2022/03/14 11:49:57;;;;;;;3.33;0.90;;;;;;;19.43;35.45;101470.38;12540649;22;66170;-76
2022/03/14 11:54:50;;;;;;;1.88;0.90;;;;;;;19.43;35.54;101462.13;12546622;22;64190;-76
2022/03/14 11:59:43;;;;;;;2.13;0.90;;;;;;;19.40;35.56;101466.25;12547809;22;65766;-75
2022/03/14 12:04:36;;;;;;;3.03;0.90;;;;;;;19.37;35.44;101464.88;12546566;22;66341;-76
2022/03/14 12:09:48;;;;;;;1.33;0.85;;;;;;;19.42;35.54;101457.72;12544715;22;66428;-76
2022/03/14 12:14:41;;;;;;;1.83;0.88;;;;;;;19.48;35.57;101448.41;12550324;22;66721;-76
2022/03/14 12:19:40;;;;;;;1.45;0.73;;;;;;;19.50;35.45;101444.25;12546778;22;66010;-76
2022/03/14 12:24:45;;;;;;;5.53;0.80;;;;;;;19.49;35.36;101434.34;12543815;22;66497;-76
2022/03/14 12:29:37;;;;;;;1.80;0.95;;;;;;;19.49;35.50;101437.09;12544681;22;65561;-76
2022/03/14 12:34:30;;;;;;;0.95;0.77;;;;;;;19.51;35.40;101442.31;12546179;22;65299;-72
2022/03/14 12:39:26;;;;;;;2.53;0.82;;;;;;;19.66;35.08;101450.50;12546440;22;65425;-72
2022/03/14 12:44:18;;;;;;;1.67;0.70;;;;;;;19.75;34.91;101444.13;12545261;22;65251;-73
2022/03/14 12:49:10;;;;;;;1.42;0.85;;;;;;;19.55;35.35;101452.50;12546272;22;65635;-73
2022/03/14 12:54:02;;;;;;;3.50;0.90;;;;;;;19.55;35.70;101459.91;12547117;22;65642;-71
2022/03/14 12:59:04;;;;;;;4.03;0.75;;;;;;;19.56;35.53;101476.13;12548179;22;66353;-73
2022/03/14 13:03:56;;;;;;;2.45;0.90;;;;;;;19.53;35.92;101471.19;12545457;22;65380;-72
2022/03/14 13:09:07;;;;;;;1.98;0.93;;;;;;;19.53;35.62;101464.88;12554191;22;65202;-70
2022/03/14 13:14:11;;;;;;;2.05;0.90;;;;;;;19.51;35.78;101476.16;12559383;22;65371;-72
2022/03/14 13:19:04;;;;;;;3.30;0.80;;;;;;;19.51;35.92;101478.91;12554335;22;65482;-74
2022/03/14 13:24:06;;;;;;;2.10;0.80;;;;;;;19.51;36.08;101478.06;12550611;22;66227;-80
2022/03/14 13:29:01;;;;;;;1.92;0.85;;;;;;;19.50;36.10;101484.69;12552843;22;66528;-73
2022/03/14 13:34:34;;;;;;;1.58;0.73;;;;;;;19.48;36.10;101484.97;12566587;22;66115;-79
2022/03/14 13:39:52;;;;;;;2.65;0.93;;;;;;;19.51;35.88;101495.41;12560650;22;65391;-79
2022/03/14 13:44:44;;;;;;;0.82;0.55;;;;;;;19.52;35.97;101494.31;12508225;22;64293;-80
2022/03/14 13:49:36;;;;;;;1.00;0.68;;;;;;;19.55;35.95;101499.25;12551108;22;65811;-76
2022/03/14 13:54:29;;;;;;;1.58;0.70;;;;;;;19.55;35.99;101504.75;12550142;22;66348;-77
2022/03/14 13:59:27;;;;;;;2.63;0.68;;;;;;;19.55;36.00;101499.25;12550645;22;66484;-77
2022/03/14 14:04:24;;;;;;;0.90;0.60;;;;;;;19.53;36.19;101508.88;12550369;22;65404;-78
2022/03/14 14:09:24;;;;;;;1.15;0.70;;;;;;;19.54;36.08;101521.53;12551845;22;66390;-80
2022/03/14 14:14:16;;;;;;;2.08;0.82;;;;;;;19.55;36.11;101513.00;12551642;22;65756;-78
2022/03/14 14:19:13;;;;;;;4.20;0.80;;;;;;;19.55;35.98;101512.19;12548018;22;66409;-77
2022/03/14 14:24:06;;;;;;;0.77;0.60;;;;;;;19.55;36.01;101518.50;12550915;22;66325;-78
2022/03/14 14:28:58;;;;;;;1.23;0.77;;;;;;;19.56;36.14;101527.59;12548581;22;65821;-74
2022/03/14 14:33:50;;;;;;;5.30;0.98;;;;;;;19.60;36.43;101528.66;12549523;22;66225;-79
2022/03/14 14:38:43;;;;;;;2.72;0.80;;;;;;;19.57;36.25;101531.97;12543364;22;65566;-79
2022/03/14 14:43:36;;;;;;;1.83;0.70;;;;;;;19.58;36.43;101523.44;12548564;22;66081;-75
2022/03/14 14:48:28;;;;;;;2.78;0.70;;;;;;;19.58;36.31;101526.19;12548643;22;65672;-74
2022/03/14 14:53:21;;;;;;;3.03;0.70;;;;;;;19.57;36.16;101529.22;12549779;22;65657;-77
2022/03/14 14:58:15;;;;;;;1.20;0.60;;;;;;;19.55;36.21;101521.25;12550620;22;65711;-79
2022/03/14 15:03:08;;;;;;;3.05;0.85;;;;;;;19.58;36.18;101523.44;12550751;22;65276;-73
2022/03/14 15:08:00;;;;;;;1.65;0.82;;;;;;;19.60;36.16;101521.25;12549027;22;65531;-70
2022/03/14 15:12:53;;;;;;;1.40;0.80;;;;;;;19.59;36.28;101527.84;12549317;22;66473;-71
2022/03/14 15:17:48;;;;;;;1.25;0.80;;;;;;;19.59;36.25;101529.75;12550226;22;65693;-71
2022/03/14 15:22:40;;;;;;;2.88;0.82;;;;;;;19.57;36.20;101526.47;12548683;22;66209;-74
2022/03/14 15:27:32;;;;;;;2.40;0.90;;;;;;;19.64;36.29;101530.56;12546931;22;66371;-73
2022/03/14 15:32:24;;;;;;;1.23;0.60;;;;;;;19.58;36.17;101526.19;12548547;22;65572;-72
2022/03/14 15:37:18;;;;;;;2.42;0.80;;;;;;;19.61;36.12;101520.13;12548862;22;66052;-73
2022/03/14 15:42:13;;;;;;;1.00;0.63;;;;;;;19.61;36.20;101514.63;12549824;22;65838;-74
2022/03/14 15:47:05;;;;;;;0.98;0.70;;;;;;;19.63;36.10;101523.44;12548788;22;65971;-73
2022/03/14 15:51:57;;;;;;;3.13;0.63;;;;;;;19.66;36.03;101533.03;12549543;22;66437;-73
2022/03/14 15:56:51;;;;;;;1.90;0.70;;;;;;;19.68;35.88;101537.16;12549902;22;66347;-72
2022/03/14 16:01:43;;;;;;;2.15;0.82;;;;;;;19.65;35.91;101543.22;12547596;22;66151;-72
2022/03/14 16:06:35;;;;;;;0.65;0.50;;;;;;;19.63;36.11;101550.97;12549339;22;66057;-72
2022/03/14 16:11:29;;;;;;;1.13;0.73;;;;;;;19.63;36.08;101552.88;12544515;22;66411;-75
2022/03/14 16:16:23;;;;;;;1.98;0.70;;;;;;;19.65;35.97;101553.41;12547898;22;66448;-72
2022/03/14 16:21:15;;;;;;;1.13;0.57;;;;;;;19.66;35.97;101561.38;12549647;22;65637;-71
2022/03/14 16:26:08;;;;;;;3.10;1.00;;;;;;;19.66;35.93;101569.63;12545862;22;65630;-76
2022/03/14 16:31:00;;;;;;;1.15;0.73;;;;;;;19.64;36.00;101576.50;12545195;22;65813;-72
2022/03/14 16:35:53;;;;;;;1.17;0.63;;;;;;;19.64;35.69;101577.34;12547733;22;66435;-72
2022/03/14 16:40:46;;;;;;;1.73;0.73;;;;;;;19.61;35.68;101574.34;12546393;22;66382;-72
2022/03/14 16:45:38;;;;;;;1.23;0.63;;;;;;;19.65;35.73;101569.91;12547158;22;65740;-70
2022/03/14 16:50:30;;;;;;;1.25;0.60;;;;;;;19.62;35.73;101567.72;12546960;22;66184;-73
2022/03/14 16:55:23;;;;;;;1.88;0.63;;;;;;;19.62;35.70;101576.81;12546555;22;66082;-70
2022/03/14 17:00:16;;;;;;;1.00;0.60;;;;;;;19.66;35.70;101582.56;12547338;22;65736;-71
2022/03/14 17:05:08;;;;;;;1.40;0.70;;;;;;;19.61;35.73;101583.41;12546859;22;65588;-74
2022/03/14 17:10:04;;;;;;;1.63;0.60;;;;;;;19.59;35.61;101585.63;12545648;22;66396;-71
2022/03/14 17:14:57;;;;;;;2.00;0.65;;;;;;;19.58;35.84;101585.88;12548174;22;65650;-72
2022/03/14 17:19:49;;;;;;;1.60;0.77;;;;;;;19.58;35.87;101586.72;12545023;22;66028;-73
2022/03/14 17:24:42;;;;;;;1.90;0.90;;;;;;;19.63;35.70;101591.41;12546809;22;65798;-73
2022/03/14 17:29:34;;;;;;;1.70;0.95;;;;;;;19.62;35.57;101593.31;12544959;22;66864;-73
2022/03/14 17:34:27;;;;;;;2.45;0.95;;;;;;;19.61;35.82;101590.84;12545732;22;66379;-73
2022/03/14 17:39:19;;;;;;;1.70;1.10;;;;;;;19.60;35.71;101584.50;12545865;22;66487;-73
2022/03/14 17:44:11;;;;;;;1.65;1.13;;;;;;;19.60;35.85;101589.19;12546087;22;66231;-70
2022/03/14 17:49:03;;;;;;;2.40;1.30;;;;;;;19.60;35.65;101589.19;12546322;22;66825;-70
2022/03/14 17:53:57;;;;;;;2.00;1.08;;;;;;;19.60;35.63;101592.75;12546553;22;66373;-71
2022/03/14 17:58:49;;;;;;;2.20;1.30;;;;;;;19.60;35.57;101595.53;12545537;22;66448;-71
2022/03/14 18:03:41;;;;;;;2.78;1.23;;;;;;;19.61;35.64;101601.84;12547559;22;66656;-72
2022/03/14 18:08:33;;;;;;;1.38;1.20;;;;;;;19.63;35.61;101613.41;12542437;22;65646;-71
2022/03/14 18:13:37;;;;;;;2.17;1.35;;;;;;;19.61;35.56;101634.84;12544643;22;65509;-71
2022/03/14 18:18:29;;;;;;;3.67;1.52;;;;;;;19.62;35.48;101633.75;12548870;22;65900;-71
2022/03/14 18:23:21;;;;;;;2.42;1.40;;;;;;;19.62;35.44;101631.00;12544694;22;65618;-71
2022/03/14 18:28:19;;;;;;;1.90;1.52;;;;;;;19.61;35.51;101646.69;12551061;22;66844;-72
2022/03/14 18:33:12;;;;;;;1.88;1.20;;;;;;;19.58;35.30;101646.41;12550920;22;66449;-71
2022/03/14 18:38:04;;;;;;;3.72;1.40;;;;;;;19.58;35.31;101644.47;12551317;22;66363;-72
2022/03/14 18:42:57;;;;;;;1.95;1.30;;;;;;;19.59;35.35;101637.88;12548530;22;65500;-72
2022/03/14 18:47:49;;;;;;;1.92;1.35;;;;;;;19.61;35.29;101649.44;12549654;22;66880;-71
2022/03/14 18:52:42;;;;;;;3.95;1.48;;;;;;;19.35;34.34;101650.50;12550258;22;66088;-70
2022/03/14 18:57:34;;;;;;;2.97;1.45;;;;;;;19.08;34.41;101656.28;12550102;22;66537;-70
2022/03/14 19:02:26;;;;;;;4.53;2.53;;;;;;;18.94;34.20;101652.41;12551599;22;66646;-72
2022/03/14 19:07:18;;;;;;;4.10;2.53;;;;;;;18.86;34.16;101652.94;12549020;22;66151;-73
2022/03/14 19:12:27;;;;;;;5.95;2.35;;;;;;;19.19;34.13;101660.69;12544350;22;65604;-73
2022/03/14 19:17:28;;;;;;;3.72;2.10;;;;;;;19.36;33.89;101658.50;12544534;22;66403;-77
2022/03/14 19:22:20;;;;;;;2.97;1.92;;;;;;;19.40;34.21;101664.28;12549689;22;65268;-73
2022/03/14 19:27:12;;;;;;;2.42;1.80;;;;;;;19.38;34.42;101670.06;12548825;22;66195;-73
2022/03/14 19:32:06;;;;;;;3.42;1.70;;;;;;;19.42;34.54;101672.22;12549965;22;66610;-74
2022/03/14 19:36:58;;;;;;;3.03;1.85;;;;;;;19.42;34.50;101673.06;12546266;22;66465;-73
2022/03/14 19:41:57;;;;;;;6.95;2.10;;;;;;;19.45;34.66;101683.53;12549451;22;65605;-74
2022/03/14 19:46:49;;;;;;;3.65;1.52;;;;;;;19.45;34.75;101686.28;12549715;22;65542;-74
2022/03/14 19:51:42;;;;;;;3.00;1.83;;;;;;;19.47;34.65;101689.63;12546957;22;66556;-73
2022/03/14 19:56:34;;;;;;;2.92;2.00;;;;;;;19.47;34.82;101692.38;12547995;22;66417;-75
2022/03/14 20:01:26;;;;;;;4.10;1.70;;;;;;;19.49;34.68;101709.41;12542437;22;66431;-74
2022/03/14 20:06:19;;;;;;;3.33;1.58;;;;;;;19.49;34.71;101711.34;12550461;22;65532;-73
2022/03/14 20:11:14;;;;;;;2.15;1.50;;;;;;;19.50;34.86;101712.97;12549223;22;65965;-73
2022/03/14 20:16:11;;;;;;;2.88;1.55;;;;;;;19.48;34.77;101712.44;12547993;22;65688;-73
2022/03/14 20:21:03;;;;;;;2.10;1.42;;;;;;;19.49;34.84;101728.66;12550845;22;66057;-73
2022/03/14 20:26:01;;;;;;;3.92;1.70;;;;;;;19.50;34.79;101722.06;12545862;22;64742;-75
2022/03/14 20:30:54;;;;;;;3.38;1.70;;;;;;;19.45;34.93;101722.03;12545629;22;66210;-74
2022/03/14 20:35:47;;;;;;;3.08;1.60;;;;;;;19.47;34.89;101713.53;12548199;22;65331;-73
2022/03/14 20:40:39;;;;;;;4.57;2.17;;;;;;;19.51;34.97;101714.63;12549302;22;65935;-73
2022/03/14 20:45:31;;;;;;;2.17;1.45;;;;;;;19.54;34.96;101714.09;12549613;22;65517;-73
2022/03/14 20:50:27;;;;;;;4.47;1.80;;;;;;;19.51;34.92;101720.97;12548163;22;65545;-76
2022/03/14 20:55:20;;;;;;;2.35;1.50;;;;;;;19.48;34.92;101724.28;12549304;22;65668;-74
2022/03/14 21:00:13;;;;;;;2.30;1.50;;;;;;;19.52;34.88;101724.53;12548160;22;66175;-74
2022/03/14 21:05:06;;;;;;;3.25;1.60;;;;;;;19.48;35.07;101737.22;12549994;22;65629;-73
2022/03/14 21:09:59;;;;;;;2.90;1.67;;;;;;;19.52;35.11;101747.38;12548867;22;65759;-72
2022/03/14 21:14:51;;;;;;;2.38;1.50;;;;;;;19.51;35.01;101739.41;12548059;22;65527;-73
2022/03/14 21:19:44;;;;;;;3.10;1.60;;;;;;;19.49;35.05;101733.38;12549360;22;65468;-72
2022/03/14 21:24:36;;;;;;;3.08;1.40;;;;;;;19.48;34.92;101724.28;12548957;22;65973;-73
2022/03/14 21:29:30;;;;;;;2.00;1.10;;;;;;;19.56;34.98;101728.41;12549360;22;65596;-72
2022/03/14 21:34:22;;;;;;;3.28;1.75;;;;;;;19.53;34.87;101737.19;12546800;22;65622;-73
2022/03/14 21:39:14;;;;;;;3.65;1.33;;;;;;;19.53;34.93;101740.78;12548782;22;65638;-73
2022/03/14 21:44:07;;;;;;;2.15;1.27;;;;;;;19.54;34.95;101736.09;12550543;22;65643;-74
2022/03/14 21:49:01;;;;;;;2.83;1.50;;;;;;;19.51;34.93;101736.63;12548212;22;65510;-73
2022/03/14 21:53:55;;;;;;;2.60;1.50;;;;;;;19.51;35.04;101729.22;12548393;22;66402;-73
2022/03/14 21:58:47;;;;;;;1.88;1.65;;;;;;;19.48;34.95;101726.22;12550090;22;66191;-72
2022/03/14 22:03:39;;;;;;;2.10;1.50;;;;;;;19.51;34.90;101726.47;12549649;22;66881;-72
2022/03/14 22:08:33;;;;;;;1.83;1.40;;;;;;;19.46;34.98;101723.69;12548132;22;66437;-73
